sensor_id;sensor_type;location;lat;lon;timestamp;temperature;humidity
2162;DHT22;1087;50.226;8.682;2023-01-29T00:01:17;3.40;99.90
2162;DHT22;1087;50.226;8.682;2023-01-29T00:03:43;3.40;99.90
2162;DHT22;1087;50.226;8.682;2023-01-29T00:06:08;3.50;99.90
2162;DHT22;1087;50.226;8.682;2023-01-29T00:08:37;3.50;99.90
2162;DHT22;1087;50.226;8.682;2023-01-29T00:11:04;3.40;99.90
2162;DHT22;1087;50.226;8.682;2023-01-29T00:13:30;3.40;99.90
2162;DHT22;1087;50.226;8.682;2023-01-29T00:15:57;3.40;99.90
2162;DHT22;1087;50.226;8.682;2023-01-29T00:18:24;3.40;99.90
2162;DHT22;1087;50.226;8.682;2023-01-29T00:20:49;3.40;99.90
2162;DHT22;1087;50.226;8.682;2023-01-29T00:23:15;3.30;99.90
2162;DHT22;1087;50.226;8.682;2023-01-29T00:25:41;3.30;99.90
2162;DHT22;1087;50.226;8.682;2023-01-29T00:28:07;3.20;99.90
2162;DHT22;1087;50.226;8.682;2023-01-29T00:30:34;3.30;99.90
2162;DHT22;1087;50.226;8.682;2023-01-29T00:32:59;3.30;99.90
2162;DHT22;1087;50.226;8.682;2023-01-29T00:35:25;3.40;99.90
2162;DHT22;1087;50.226;8.682;2023-01-29T00:37:50;3.40;99.90
2162;DHT22;1087;50.226;8.682;2023-01-29T00:40:16;3.40;99.90
2162;DHT22;1087;50.226;8.682;2023-01-29T00:42:43;3.40;99.90
2162;DHT22;1087;50.226;8.682;2023-01-29T00:45:28;3.50;99.90
2162;DHT22;1087;50.226;8.682;2023-01-29T00:47:53;3.40;99.90
2162;DHT22;1087;50.226;8.682;2023-01-29T00:50:19;3.40;99.90
2162;DHT22;1087;50.226;8.682;2023-01-29T00:52:45;3.30;99.90
2162;DHT22;1087;50.226;8.682;2023-01-29T00:55:10;3.30;99.90
2162;DHT22;1087;50.226;8.682;2023-01-29T00:57:36;3.20;99.90
2162;DHT22;1087;50.226;8.682;2023-01-29T01:00:04;3.20;99.90
2162;DHT22;1087;50.226;8.682;2023-01-29T01:02:30;3.20;99.90
2162;DHT22;1087;50.226;8.682;2023-01-29T01:05:15;3.30;99.90
2162;DHT22;1087;50.226;8.682;2023-01-29T01:07:49;3.30;99.90
2162;DHT22;1087;50.226;8.682;2023-01-29T01:10:19;3.30;99.90
2162;DHT22;1087;50.226;8.682;2023-01-29T01:15:15;3.30;99.90
2162;DHT22;1087;50.226;8.682;2023-01-29T01:17:40;3.30;99.90
2162;DHT22;1087;50.226;8.682;2023-01-29T01:20:06;3.20;99.90
2162;DHT22;1087;50.226;8.682;2023-01-29T01:22:32;3.20;99.90
2162;DHT22;1087;50.226;8.682;2023-01-29T01:24:57;3.20;99.90
2162;DHT22;1087;50.226;8.682;2023-01-29T01:27:23;3.20;99.90
2162;DHT22;1087;50.226;8.682;2023-01-29T01:29:49;3.20;99.90
2162;DHT22;1087;50.226;8.682;2023-01-29T01:32:15;3.30;99.90
2162;DHT22;1087;50.226;8.682;2023-01-29T01:34:41;3.40;99.90
2162;DHT22;1087;50.226;8.682;2023-01-29T01:37:06;3.40;99.90
2162;DHT22;1087;50.226;8.682;2023-01-29T01:39:32;3.30;99.90
2162;DHT22;1087;50.226;8.682;2023-01-29T01:41:57;3.30;99.90
2162;DHT22;1087;50.226;8.682;2023-01-29T01:47:18;3.30;99.90
2162;DHT22;1087;50.226;8.682;2023-01-29T01:49:45;3.30;99.90
2162;DHT22;1087;50.226;8.682;2023-01-29T01:52:12;3.20;99.90
2162;DHT22;1087;50.226;8.682;2023-01-29T01:54:41;3.30;99.90
2162;DHT22;1087;50.226;8.682;2023-01-29T01:57:11;3.30;99.90
2162;DHT22;1087;50.226;8.682;2023-01-29T01:59:43;3.20;99.90
2162;DHT22;1087;50.226;8.682;2023-01-29T02:02:11;3.30;99.90
2162;DHT22;1087;50.226;8.682;2023-01-29T02:04:55;3.20;99.90
2162;DHT22;1087;50.226;8.682;2023-01-29T02:07:45;3.20;99.90
2162;DHT22;1087;50.226;8.682;2023-01-29T02:10:36;3.20;99.90
2162;DHT22;1087;50.226;8.682;2023-01-29T02:13:04;3.10;99.90
2162;DHT22;1087;50.226;8.682;2023-01-29T02:15:30;3.20;99.90
2162;DHT22;1087;50.226;8.682;2023-01-29T02:17:56;3.20;99.90
2162;DHT22;1087;50.226;8.682;2023-01-29T02:20:31;3.20;99.90
2162;DHT22;1087;50.226;8.682;2023-01-29T02:26:14;3.10;99.90
2162;DHT22;1087;50.226;8.682;2023-01-29T02:28:48;3.10;99.90
2162;DHT22;1087;50.226;8.682;2023-01-29T02:36:49;3.00;99.90
2162;DHT22;1087;50.226;8.682;2023-01-29T02:42:20;2.90;99.90
2162;DHT22;1087;50.226;8.682;2023-01-29T02:44:55;3.00;99.90
2162;DHT22;1087;50.226;8.682;2023-01-29T02:47:34;3.00;99.90
2162;DHT22;1087;50.226;8.682;2023-01-29T02:52:38;3.10;99.90
2162;DHT22;1087;50.226;8.682;2023-01-29T02:55:14;3.10;99.90
2162;DHT22;1087;50.226;8.682;2023-01-29T02:57:43;3.10;99.90
2162;DHT22;1087;50.226;8.682;2023-01-29T03:00:19;3.10;99.90
2162;DHT22;1087;50.226;8.682;2023-01-29T03:03:02;3.20;99.90
2162;DHT22;1087;50.226;8.682;2023-01-29T03:05:41;3.00;99.90
2162;DHT22;1087;50.226;8.682;2023-01-29T03:08:11;2.90;99.90
2162;DHT22;1087;50.226;8.682;2023-01-29T03:10:53;2.90;99.90
2162;DHT22;1087;50.226;8.682;2023-01-29T03:13:34;2.80;99.90
2162;DHT22;1087;50.226;8.682;2023-01-29T03:16:14;2.90;99.90
2162;DHT22;1087;50.226;8.682;2023-01-29T03:18:53;2.90;99.90
2162;DHT22;1087;50.226;8.682;2023-01-29T03:21:31;2.90;99.90
2162;DHT22;1087;50.226;8.682;2023-01-29T03:24:34;2.90;99.90
2162;DHT22;1087;50.226;8.682;2023-01-29T03:27:23;3.00;99.90
2162;DHT22;1087;50.226;8.682;2023-01-29T03:30:10;3.00;99.90
2162;DHT22;1087;50.226;8.682;2023-01-29T03:32:57;3.00;99.90
2162;DHT22;1087;50.226;8.682;2023-01-29T03:35:25;3.00;99.90
2162;DHT22;1087;50.226;8.682;2023-01-29T03:38:06;3.10;99.90
2162;DHT22;1087;50.226;8.682;2023-01-29T03:40:42;3.00;99.90
2162;DHT22;1087;50.226;8.682;2023-01-29T03:43:18;3.00;99.90
2162;DHT22;1087;50.226;8.682;2023-01-29T03:46:14;3.00;99.90
2162;DHT22;1087;50.226;8.682;2023-01-29T03:48:52;3.00;99.90
2162;DHT22;1087;50.226;8.682;2023-01-29T03:51:39;2.90;99.90
2162;DHT22;1087;50.226;8.682;2023-01-29T03:54:20;3.00;99.90
2162;DHT22;1087;50.226;8.682;2023-01-29T03:57:14;2.90;99.90
2162;DHT22;1087;50.226;8.682;2023-01-29T04:02:21;2.90;99.90
2162;DHT22;1087;50.226;8.682;2023-01-29T04:04:55;2.90;99.90
2162;DHT22;1087;50.226;8.682;2023-01-29T04:07:22;2.90;99.90
2162;DHT22;1087;50.226;8.682;2023-01-29T04:12:54;2.90;99.90
2162;DHT22;1087;50.226;8.682;2023-01-29T04:15:18;2.90;99.90
2162;DHT22;1087;50.226;8.682;2023-01-29T04:17:49;2.90;99.90
2162;DHT22;1087;50.226;8.682;2023-01-29T04:20:16;2.90;99.90
2162;DHT22;1087;50.226;8.682;2023-01-29T04:22:45;2.80;99.90
2162;DHT22;1087;50.226;8.682;2023-01-29T04:25:15;2.80;99.90
2162;DHT22;1087;50.226;8.682;2023-01-29T04:27:56;2.80;99.90
2162;DHT22;1087;50.226;8.682;2023-01-29T04:30:41;2.60;99.90
2162;DHT22;1087;50.226;8.682;2023-01-29T04:33:34;2.60;99.90
2162;DHT22;1087;50.226;8.682;2023-01-29T04:36:41;2.60;99.90
2162;DHT22;1087;50.226;8.682;2023-01-29T04:39:17;2.60;99.90
2162;DHT22;1087;50.226;8.682;2023-01-29T04:42:05;2.60;99.90
2162;DHT22;1087;50.226;8.682;2023-01-29T04:44:53;2.60;99.90
2162;DHT22;1087;50.226;8.682;2023-01-29T04:50:14;2.70;99.90
2162;DHT22;1087;50.226;8.682;2023-01-29T04:52:57;2.60;99.90
2162;DHT22;1087;50.226;8.682;2023-01-29T04:55:33;2.50;99.90
2162;DHT22;1087;50.226;8.682;2023-01-29T04:58:24;2.50;99.90
2162;DHT22;1087;50.226;8.682;2023-01-29T05:00:52;2.50;99.90
2162;DHT22;1087;50.226;8.682;2023-01-29T05:03:21;2.50;99.90
2162;DHT22;1087;50.226;8.682;2023-01-29T05:05:49;2.50;99.90
2162;DHT22;1087;50.226;8.682;2023-01-29T05:08:18;2.40;99.90
2162;DHT22;1087;50.226;8.682;2023-01-29T05:10:45;2.50;99.90
2162;DHT22;1087;50.226;8.682;2023-01-29T05:13:14;2.50;99.90
2162;DHT22;1087;50.226;8.682;2023-01-29T05:18:11;2.50;99.90
2162;DHT22;1087;50.226;8.682;2023-01-29T05:20:38;2.50;99.90
2162;DHT22;1087;50.226;8.682;2023-01-29T05:23:16;2.50;99.90
2162;DHT22;1087;50.226;8.682;2023-01-29T05:25:42;2.50;99.90
2162;DHT22;1087;50.226;8.682;2023-01-29T05:28:08;2.50;99.90
2162;DHT22;1087;50.226;8.682;2023-01-29T05:30:47;2.40;99.90
2162;DHT22;1087;50.226;8.682;2023-01-29T05:33:18;2.40;99.90
2162;DHT22;1087;50.226;8.682;2023-01-29T05:35:44;2.40;99.90
2162;DHT22;1087;50.226;8.682;2023-01-29T05:38:09;2.30;99.90
2162;DHT22;1087;50.226;8.682;2023-01-29T05:40:36;2.30;99.90
2162;DHT22;1087;50.226;8.682;2023-01-29T05:43:02;2.30;99.90
2162;DHT22;1087;50.226;8.682;2023-01-29T05:45:27;2.30;99.90
2162;DHT22;1087;50.226;8.682;2023-01-29T05:47:57;2.30;99.90
2162;DHT22;1087;50.226;8.682;2023-01-29T05:50:23;2.30;99.90
2162;DHT22;1087;50.226;8.682;2023-01-29T05:52:49;2.30;99.90
2162;DHT22;1087;50.226;8.682;2023-01-29T05:55:14;2.30;99.90
2162;DHT22;1087;50.226;8.682;2023-01-29T05:57:40;2.20;99.90
2162;DHT22;1087;50.226;8.682;2023-01-29T06:00:07;2.20;99.90
2162;DHT22;1087;50.226;8.682;2023-01-29T06:02:33;2.20;99.90
2162;DHT22;1087;50.226;8.682;2023-01-29T06:04:59;2.20;99.90
2162;DHT22;1087;50.226;8.682;2023-01-29T06:07:24;2.10;99.90
2162;DHT22;1087;50.226;8.682;2023-01-29T06:09:50;2.20;99.90
2162;DHT22;1087;50.226;8.682;2023-01-29T06:12:15;2.10;99.90
2162;DHT22;1087;50.226;8.682;2023-01-29T06:14:41;2.20;99.90
2162;DHT22;1087;50.226;8.682;2023-01-29T06:17:06;2.20;99.90
2162;DHT22;1087;50.226;8.682;2023-01-29T06:19:32;2.20;99.90
2162;DHT22;1087;50.226;8.682;2023-01-29T06:21:57;2.10;99.90
2162;DHT22;1087;50.226;8.682;2023-01-29T06:24:23;2.10;99.90
2162;DHT22;1087;50.226;8.682;2023-01-29T06:26:48;2.10;99.90
2162;DHT22;1087;50.226;8.682;2023-01-29T06:29:14;2.10;99.90
2162;DHT22;1087;50.226;8.682;2023-01-29T06:31:39;2.00;99.90
2162;DHT22;1087;50.226;8.682;2023-01-29T06:34:06;2.00;99.90
2162;DHT22;1087;50.226;8.682;2023-01-29T06:36:32;2.00;99.90
2162;DHT22;1087;50.226;8.682;2023-01-29T06:38:58;2.00;99.90
2162;DHT22;1087;50.226;8.682;2023-01-29T06:41:23;2.00;99.90
2162;DHT22;1087;50.226;8.682;2023-01-29T06:43:50;2.00;99.90
2162;DHT22;1087;50.226;8.682;2023-01-29T06:46:16;2.00;99.90
2162;DHT22;1087;50.226;8.682;2023-01-29T06:48:41;2.10;99.90
2162;DHT22;1087;50.226;8.682;2023-01-29T06:51:08;2.10;99.90
2162;DHT22;1087;50.226;8.682;2023-01-29T06:53:34;2.10;99.90
2162;DHT22;1087;50.226;8.682;2023-01-29T06:56:00;2.00;99.90
2162;DHT22;1087;50.226;8.682;2023-01-29T06:58:26;1.90;99.90
2162;DHT22;1087;50.226;8.682;2023-01-29T07:00:51;1.90;99.90
2162;DHT22;1087;50.226;8.682;2023-01-29T07:03:17;2.00;99.90
2162;DHT22;1087;50.226;8.682;2023-01-29T07:05:49;2.10;99.90
2162;DHT22;1087;50.226;8.682;2023-01-29T07:08:15;2.10;99.90
2162;DHT22;1087;50.226;8.682;2023-01-29T07:10:40;2.10;99.90
2162;DHT22;1087;50.226;8.682;2023-01-29T07:13:06;2.10;99.90
2162;DHT22;1087;50.226;8.682;2023-01-29T07:15:31;2.10;99.90
2162;DHT22;1087;50.226;8.682;2023-01-29T07:17:58;2.10;99.90
2162;DHT22;1087;50.226;8.682;2023-01-29T07:20:25;2.10;99.90
2162;DHT22;1087;50.226;8.682;2023-01-29T07:22:51;2.10;99.90
2162;DHT22;1087;50.226;8.682;2023-01-29T07:25:17;2.10;99.90
2162;DHT22;1087;50.226;8.682;2023-01-29T07:27:42;2.10;99.90
2162;DHT22;1087;50.226;8.682;2023-01-29T07:30:08;2.10;99.90
2162;DHT22;1087;50.226;8.682;2023-01-29T07:32:34;2.10;99.90
2162;DHT22;1087;50.226;8.682;2023-01-29T07:34:59;2.20;99.90
2162;DHT22;1087;50.226;8.682;2023-01-29T07:37:25;2.20;99.90
2162;DHT22;1087;50.226;8.682;2023-01-29T07:39:51;2.20;99.90
2162;DHT22;1087;50.226;8.682;2023-01-29T07:42:16;2.30;99.90
2162;DHT22;1087;50.226;8.682;2023-01-29T07:44:42;2.20;99.90
2162;DHT22;1087;50.226;8.682;2023-01-29T07:47:07;2.20;99.90
2162;DHT22;1087;50.226;8.682;2023-01-29T07:49:33;2.20;99.90
2162;DHT22;1087;50.226;8.682;2023-01-29T07:51:58;2.10;99.90
2162;DHT22;1087;50.226;8.682;2023-01-29T07:54:24;2.10;99.90
2162;DHT22;1087;50.226;8.682;2023-01-29T07:56:49;2.10;99.90
2162;DHT22;1087;50.226;8.682;2023-01-29T07:59:15;2.10;99.90
2162;DHT22;1087;50.226;8.682;2023-01-29T08:01:40;2.10;99.90
2162;DHT22;1087;50.226;8.682;2023-01-29T08:04:06;2.10;99.90
2162;DHT22;1087;50.226;8.682;2023-01-29T08:06:31;2.10;99.90
2162;DHT22;1087;50.226;8.682;2023-01-29T08:08:57;2.10;99.90
2162;DHT22;1087;50.226;8.682;2023-01-29T08:11:24;2.10;99.90
2162;DHT22;1087;50.226;8.682;2023-01-29T08:13:49;2.10;99.90
2162;DHT22;1087;50.226;8.682;2023-01-29T08:16:15;2.10;99.90
2162;DHT22;1087;50.226;8.682;2023-01-29T08:18:40;2.20;99.90
2162;DHT22;1087;50.226;8.682;2023-01-29T08:21:10;2.30;99.90
2162;DHT22;1087;50.226;8.682;2023-01-29T08:23:36;2.30;99.90
2162;DHT22;1087;50.226;8.682;2023-01-29T08:26:02;2.20;99.90
2162;DHT22;1087;50.226;8.682;2023-01-29T08:28:28;2.30;99.90
2162;DHT22;1087;50.226;8.682;2023-01-29T08:30:53;2.30;99.90
2162;DHT22;1087;50.226;8.682;2023-01-29T08:33:19;2.30;99.90
2162;DHT22;1087;50.226;8.682;2023-01-29T08:35:48;2.30;99.90
2162;DHT22;1087;50.226;8.682;2023-01-29T08:38:15;2.40;99.90
2162;DHT22;1087;50.226;8.682;2023-01-29T08:40:40;2.40;99.90
2162;DHT22;1087;50.226;8.682;2023-01-29T08:43:07;2.40;99.90
2162;DHT22;1087;50.226;8.682;2023-01-29T08:45:33;2.40;99.90
2162;DHT22;1087;50.226;8.682;2023-01-29T08:47:59;2.40;99.90
2162;DHT22;1087;50.226;8.682;2023-01-29T08:50:25;2.40;99.90
2162;DHT22;1087;50.226;8.682;2023-01-29T08:52:51;2.40;99.90
2162;DHT22;1087;50.226;8.682;2023-01-29T08:55:21;2.40;99.90
2162;DHT22;1087;50.226;8.682;2023-01-29T08:57:46;2.40;99.90
2162;DHT22;1087;50.226;8.682;2023-01-29T09:00:12;2.30;99.90
2162;DHT22;1087;50.226;8.682;2023-01-29T09:02:39;2.30;99.90
2162;DHT22;1087;50.226;8.682;2023-01-29T09:05:05;2.30;99.90
2162;DHT22;1087;50.226;8.682;2023-01-29T09:07:31;2.30;99.90
2162;DHT22;1087;50.226;8.682;2023-01-29T09:09:56;2.30;99.90
2162;DHT22;1087;50.226;8.682;2023-01-29T09:12:22;2.30;99.90
2162;DHT22;1087;50.226;8.682;2023-01-29T09:14:47;2.40;99.90
2162;DHT22;1087;50.226;8.682;2023-01-29T09:17:13;2.40;99.90
2162;DHT22;1087;50.226;8.682;2023-01-29T09:19:38;2.50;99.90
2162;DHT22;1087;50.226;8.682;2023-01-29T09:22:04;2.50;99.90
2162;DHT22;1087;50.226;8.682;2023-01-29T09:24:29;2.60;99.90
2162;DHT22;1087;50.226;8.682;2023-01-29T09:26:57;2.40;99.90
2162;DHT22;1087;50.226;8.682;2023-01-29T09:29:22;2.20;99.90
2162;DHT22;1087;50.226;8.682;2023-01-29T09:31:48;2.30;99.90
2162;DHT22;1087;50.226;8.682;2023-01-29T09:34:13;2.40;99.90
2162;DHT22;1087;50.226;8.682;2023-01-29T09:36:39;2.50;99.90
2162;DHT22;1087;50.226;8.682;2023-01-29T09:39:04;2.50;99.90
2162;DHT22;1087;50.226;8.682;2023-01-29T09:44:09;2.50;99.90
2162;DHT22;1087;50.226;8.682;2023-01-29T09:46:41;2.40;99.90
2162;DHT22;1087;50.226;8.682;2023-01-29T09:49:23;2.40;99.90
2162;DHT22;1087;50.226;8.682;2023-01-29T09:51:54;2.30;99.90
2162;DHT22;1087;50.226;8.682;2023-01-29T09:57:26;2.30;99.90
2162;DHT22;1087;50.226;8.682;2023-01-29T09:59:54;2.40;99.90
2162;DHT22;1087;50.226;8.682;2023-01-29T10:02:42;2.50;99.90
2162;DHT22;1087;50.226;8.682;2023-01-29T10:05:37;2.40;99.90
2162;DHT22;1087;50.226;8.682;2023-01-29T10:08:17;2.50;99.90
2162;DHT22;1087;50.226;8.682;2023-01-29T10:11:27;2.50;99.90
2162;DHT22;1087;50.226;8.682;2023-01-29T10:20:40;2.50;99.90
2162;DHT22;1087;50.226;8.682;2023-01-29T10:25:14;2.60;99.90
2162;DHT22;1087;50.226;8.682;2023-01-29T10:27:46;2.50;99.90
2162;DHT22;1087;50.226;8.682;2023-01-29T10:30:34;2.50;99.90
2162;DHT22;1087;50.226;8.682;2023-01-29T10:33:04;2.50;99.90
2162;DHT22;1087;50.226;8.682;2023-01-29T10:35:37;2.60;99.90
2162;DHT22;1087;50.226;8.682;2023-01-29T10:38:39;2.60;99.90
2162;DHT22;1087;50.226;8.682;2023-01-29T10:52:28;2.80;99.90
2162;DHT22;1087;50.226;8.682;2023-01-29T10:58:20;2.80;99.90
2162;DHT22;1087;50.226;8.682;2023-01-29T11:00:47;2.80;99.90
2162;DHT22;1087;50.226;8.682;2023-01-29T11:03:25;2.80;99.90
2162;DHT22;1087;50.226;8.682;2023-01-29T11:11:47;2.70;99.90
2162;DHT22;1087;50.226;8.682;2023-01-29T11:14:25;2.50;99.90
2162;DHT22;1087;50.226;8.682;2023-01-29T11:16:52;2.60;99.90
2162;DHT22;1087;50.226;8.682;2023-01-29T11:19:38;2.40;99.90
2162;DHT22;1087;50.226;8.682;2023-01-29T11:22:04;2.50;99.90
2162;DHT22;1087;50.226;8.682;2023-01-29T11:24:36;2.50;99.90
2162;DHT22;1087;50.226;8.682;2023-01-29T11:27:13;2.60;99.90
2162;DHT22;1087;50.226;8.682;2023-01-29T11:29:43;2.30;99.90
2162;DHT22;1087;50.226;8.682;2023-01-29T11:35:17;2.20;99.90
2162;DHT22;1087;50.226;8.682;2023-01-29T11:37:44;2.40;99.90
2162;DHT22;1087;50.226;8.682;2023-01-29T11:40:33;2.60;99.90
2162;DHT22;1087;50.226;8.682;2023-01-29T11:43:21;2.50;99.90
2162;DHT22;1087;50.226;8.682;2023-01-29T11:45:49;2.60;99.90
2162;DHT22;1087;50.226;8.682;2023-01-29T11:48:18;2.70;99.90
2162;DHT22;1087;50.226;8.682;2023-01-29T11:50:54;2.60;99.90
2162;DHT22;1087;50.226;8.682;2023-01-29T11:55:57;3.00;99.90
2162;DHT22;1087;50.226;8.682;2023-01-29T11:58:31;2.80;99.90
2162;DHT22;1087;50.226;8.682;2023-01-29T12:00:58;2.90;99.90
2162;DHT22;1087;50.226;8.682;2023-01-29T12:03:34;2.90;99.90
2162;DHT22;1087;50.226;8.682;2023-01-29T12:06:05;2.90;99.90
2162;DHT22;1087;50.226;8.682;2023-01-29T12:08:38;3.00;99.90
2162;DHT22;1087;50.226;8.682;2023-01-29T12:11:22;2.90;99.90
2162;DHT22;1087;50.226;8.682;2023-01-29T12:13:53;3.10;99.90
2162;DHT22;1087;50.226;8.682;2023-01-29T12:16:30;2.80;99.90
2162;DHT22;1087;50.226;8.682;2023-01-29T12:27:38;3.20;99.90
2162;DHT22;1087;50.226;8.682;2023-01-29T12:30:35;3.10;99.90
2162;DHT22;1087;50.226;8.682;2023-01-29T12:35:40;3.00;99.90
2162;DHT22;1087;50.226;8.682;2023-01-29T12:38:17;2.70;99.90
2162;DHT22;1087;50.226;8.682;2023-01-29T12:40:45;2.80;99.90
2162;DHT22;1087;50.226;8.682;2023-01-29T12:43:16;2.90;99.90
2162;DHT22;1087;50.226;8.682;2023-01-29T12:45:45;2.90;99.90
2162;DHT22;1087;50.226;8.682;2023-01-29T12:48:19;3.00;99.90
2162;DHT22;1087;50.226;8.682;2023-01-29T12:50:46;3.10;99.90
2162;DHT22;1087;50.226;8.682;2023-01-29T12:53:23;3.10;99.90
2162;DHT22;1087;50.226;8.682;2023-01-29T12:55:58;3.00;99.90
2162;DHT22;1087;50.226;8.682;2023-01-29T12:58:35;3.00;99.90
2162;DHT22;1087;50.226;8.682;2023-01-29T13:01:11;3.00;99.90
2162;DHT22;1087;50.226;8.682;2023-01-29T13:03:48;3.00;99.90
2162;DHT22;1087;50.226;8.682;2023-01-29T13:06:17;3.00;99.90
2162;DHT22;1087;50.226;8.682;2023-01-29T13:08:50;3.00;99.90
2162;DHT22;1087;50.226;8.682;2023-01-29T13:14:03;3.00;99.90
2162;DHT22;1087;50.226;8.682;2023-01-29T13:16:41;3.00;99.90
2162;DHT22;1087;50.226;8.682;2023-01-29T13:19:26;3.20;99.90
2162;DHT22;1087;50.226;8.682;2023-01-29T13:21:55;3.20;99.90
2162;DHT22;1087;50.226;8.682;2023-01-29T13:24:23;3.10;99.90
2162;DHT22;1087;50.226;8.682;2023-01-29T13:26:49;3.30;99.90
2162;DHT22;1087;50.226;8.682;2023-01-29T13:31:47;3.20;99.90
2162;DHT22;1087;50.226;8.682;2023-01-29T13:34:18;3.30;99.90
2162;DHT22;1087;50.226;8.682;2023-01-29T13:36:46;3.30;99.90
2162;DHT22;1087;50.226;8.682;2023-01-29T13:39:26;3.30;99.90
2162;DHT22;1087;50.226;8.682;2023-01-29T13:41:53;3.30;99.90
2162;DHT22;1087;50.226;8.682;2023-01-29T13:44:23;3.30;99.90
2162;DHT22;1087;50.226;8.682;2023-01-29T13:46:57;3.40;99.90
2162;DHT22;1087;50.226;8.682;2023-01-29T13:49:33;3.30;99.90
2162;DHT22;1087;50.226;8.682;2023-01-29T13:52:23;3.30;99.90
2162;DHT22;1087;50.226;8.682;2023-01-29T13:54:56;3.40;99.90
2162;DHT22;1087;50.226;8.682;2023-01-29T14:08:02;3.20;99.90
2162;DHT22;1087;50.226;8.682;2023-01-29T14:10:32;3.20;99.90
2162;DHT22;1087;50.226;8.682;2023-01-29T14:18:35;3.20;99.90
2162;DHT22;1087;50.226;8.682;2023-01-29T14:21:16;3.20;99.90
2162;DHT22;1087;50.226;8.682;2023-01-29T14:23:50;3.20;99.90
2162;DHT22;1087;50.226;8.682;2023-01-29T14:28:52;3.10;99.90
2162;DHT22;1087;50.226;8.682;2023-01-29T14:34:34;3.30;99.90
2162;DHT22;1087;50.226;8.682;2023-01-29T14:39:53;3.20;99.90
2162;DHT22;1087;50.226;8.682;2023-01-29T14:42:25;3.10;99.90
2162;DHT22;1087;50.226;8.682;2023-01-29T14:47:20;3.10;99.90
2162;DHT22;1087;50.226;8.682;2023-01-29T14:52:18;3.20;99.90
2162;DHT22;1087;50.226;8.682;2023-01-29T14:54:46;3.20;99.90
2162;DHT22;1087;50.226;8.682;2023-01-29T14:57:14;3.20;99.90
2162;DHT22;1087;50.226;8.682;2023-01-29T15:02:49;3.20;99.90
2162;DHT22;1087;50.226;8.682;2023-01-29T15:05:19;3.10;99.90
2162;DHT22;1087;50.226;8.682;2023-01-29T15:08:25;2.90;99.90
2162;DHT22;1087;50.226;8.682;2023-01-29T15:11:01;3.00;99.90
2162;DHT22;1087;50.226;8.682;2023-01-29T15:17:01;2.90;99.90
2162;DHT22;1087;50.226;8.682;2023-01-29T15:19:37;2.90;99.90
2162;DHT22;1087;50.226;8.682;2023-01-29T15:22:17;2.80;99.90
2162;DHT22;1087;50.226;8.682;2023-01-29T15:24:45;2.80;99.90
2162;DHT22;1087;50.226;8.682;2023-01-29T15:27:16;2.80;99.90
2162;DHT22;1087;50.226;8.682;2023-01-29T15:29:47;2.90;99.90
2162;DHT22;1087;50.226;8.682;2023-01-29T15:32:26;2.80;99.90
2162;DHT22;1087;50.226;8.682;2023-01-29T15:34:54;2.80;99.90
2162;DHT22;1087;50.226;8.682;2023-01-29T15:37:25;2.80;99.90
2162;DHT22;1087;50.226;8.682;2023-01-29T15:39:51;3.00;99.90
2162;DHT22;1087;50.226;8.682;2023-01-29T15:42:17;2.90;99.90
2162;DHT22;1087;50.226;8.682;2023-01-29T15:44:47;2.80;99.90
2162;DHT22;1087;50.226;8.682;2023-01-29T15:47:14;2.90;99.90
2162;DHT22;1087;50.226;8.682;2023-01-29T15:49:40;3.00;99.90
2162;DHT22;1087;50.226;8.682;2023-01-29T15:52:19;3.00;99.90
2162;DHT22;1087;50.226;8.682;2023-01-29T15:54:45;3.00;99.90
2162;DHT22;1087;50.226;8.682;2023-01-29T15:57:19;3.00;99.90
2162;DHT22;1087;50.226;8.682;2023-01-29T15:59:47;3.10;99.90
2162;DHT22;1087;50.226;8.682;2023-01-29T16:04:59;2.80;99.90
2162;DHT22;1087;50.226;8.682;2023-01-29T16:07:26;2.90;99.90
2162;DHT22;1087;50.226;8.682;2023-01-29T16:09:53;3.00;99.90
2162;DHT22;1087;50.226;8.682;2023-01-29T16:12:19;3.00;99.90
2162;DHT22;1087;50.226;8.682;2023-01-29T16:14:45;2.90;99.90
2162;DHT22;1087;50.226;8.682;2023-01-29T16:17:32;3.00;99.90
2162;DHT22;1087;50.226;8.682;2023-01-29T16:20:03;3.00;99.90
2162;DHT22;1087;50.226;8.682;2023-01-29T16:22:35;3.00;99.90
2162;DHT22;1087;50.226;8.682;2023-01-29T16:25:06;3.00;99.90
2162;DHT22;1087;50.226;8.682;2023-01-29T16:27:35;3.10;99.90
2162;DHT22;1087;50.226;8.682;2023-01-29T16:30:01;3.00;99.90
2162;DHT22;1087;50.226;8.682;2023-01-29T16:32:29;3.00;99.90
2162;DHT22;1087;50.226;8.682;2023-01-29T16:34:57;3.00;99.90
2162;DHT22;1087;50.226;8.682;2023-01-29T16:37:29;3.10;99.90
2162;DHT22;1087;50.226;8.682;2023-01-29T16:39:55;3.10;99.90
2162;DHT22;1087;50.226;8.682;2023-01-29T16:47:40;3.20;99.90
2162;DHT22;1087;50.226;8.682;2023-01-29T16:50:28;3.20;99.90
2162;DHT22;1087;50.226;8.682;2023-01-29T16:53:18;3.20;99.90
2162;DHT22;1087;50.226;8.682;2023-01-29T16:55:46;3.10;99.90
2162;DHT22;1087;50.226;8.682;2023-01-29T16:58:22;3.10;99.90
2162;DHT22;1087;50.226;8.682;2023-01-29T17:00:52;3.10;99.90
2162;DHT22;1087;50.226;8.682;2023-01-29T17:03:18;3.10;99.90
2162;DHT22;1087;50.226;8.682;2023-01-29T17:05:44;3.00;99.90
2162;DHT22;1087;50.226;8.682;2023-01-29T17:08:31;2.90;99.90
2162;DHT22;1087;50.226;8.682;2023-01-29T17:10:58;3.00;99.90
2162;DHT22;1087;50.226;8.682;2023-01-29T17:13:26;3.00;99.90
2162;DHT22;1087;50.226;8.682;2023-01-29T17:15:52;3.10;99.90
2162;DHT22;1087;50.226;8.682;2023-01-29T17:18:24;3.00;99.90
2162;DHT22;1087;50.226;8.682;2023-01-29T17:20:50;3.00;99.90
2162;DHT22;1087;50.226;8.682;2023-01-29T17:23:17;3.00;99.90
2162;DHT22;1087;50.226;8.682;2023-01-29T17:25:43;2.90;99.90
2162;DHT22;1087;50.226;8.682;2023-01-29T17:28:13;2.90;99.90
2162;DHT22;1087;50.226;8.682;2023-01-29T17:30:39;3.00;99.90
2162;DHT22;1087;50.226;8.682;2023-01-29T17:33:10;3.00;99.90
2162;DHT22;1087;50.226;8.682;2023-01-29T17:35:37;3.00;99.90
2162;DHT22;1087;50.226;8.682;2023-01-29T17:38:02;3.00;99.90
2162;DHT22;1087;50.226;8.682;2023-01-29T17:40:52;3.00;99.90
2162;DHT22;1087;50.226;8.682;2023-01-29T17:43:18;3.00;99.90
2162;DHT22;1087;50.226;8.682;2023-01-29T17:45:43;3.00;99.90
2162;DHT22;1087;50.226;8.682;2023-01-29T17:48:22;3.00;99.90
2162;DHT22;1087;50.226;8.682;2023-01-29T17:50:51;3.00;99.90
2162;DHT22;1087;50.226;8.682;2023-01-29T17:53:18;3.00;99.90
2162;DHT22;1087;50.226;8.682;2023-01-29T17:55:44;3.00;99.90
2162;DHT22;1087;50.226;8.682;2023-01-29T17:58:23;3.00;99.90
2162;DHT22;1087;50.226;8.682;2023-01-29T18:00:49;3.00;99.90
2162;DHT22;1087;50.226;8.682;2023-01-29T18:03:15;3.00;99.90
2162;DHT22;1087;50.226;8.682;2023-01-29T18:05:42;2.90;99.90
2162;DHT22;1087;50.226;8.682;2023-01-29T18:08:18;3.00;99.90
2162;DHT22;1087;50.226;8.682;2023-01-29T18:10:45;2.90;99.90
2162;DHT22;1087;50.226;8.682;2023-01-29T18:13:11;2.90;99.90
2162;DHT22;1087;50.226;8.682;2023-01-29T18:15:36;3.00;99.90
2162;DHT22;1087;50.226;8.682;2023-01-29T18:18:02;2.90;99.90
2162;DHT22;1087;50.226;8.682;2023-01-29T18:20:28;2.90;99.90
2162;DHT22;1087;50.226;8.682;2023-01-29T18:22:54;2.90;99.90
2162;DHT22;1087;50.226;8.682;2023-01-29T18:25:20;2.90;99.90
2162;DHT22;1087;50.226;8.682;2023-01-29T18:27:45;2.90;99.90
2162;DHT22;1087;50.226;8.682;2023-01-29T18:30:12;2.90;99.90
2162;DHT22;1087;50.226;8.682;2023-01-29T18:32:38;2.90;99.90
2162;DHT22;1087;50.226;8.682;2023-01-29T18:35:04;3.00;99.90
2162;DHT22;1087;50.226;8.682;2023-01-29T18:37:31;2.90;99.90
2162;DHT22;1087;50.226;8.682;2023-01-29T18:39:57;2.90;99.90
2162;DHT22;1087;50.226;8.682;2023-01-29T18:42:23;2.90;99.90
2162;DHT22;1087;50.226;8.682;2023-01-29T18:44:48;2.80;99.90
2162;DHT22;1087;50.226;8.682;2023-01-29T18:47:14;2.80;99.90
2162;DHT22;1087;50.226;8.682;2023-01-29T18:49:39;2.80;99.90
2162;DHT22;1087;50.226;8.682;2023-01-29T18:52:06;2.70;99.90